createdAt,value
2018-06-18T00:00:31.359Z,5.60
2018-06-18T00:01:04.451Z,4.97
2018-06-18T00:01:37.521Z,5.20
2018-06-18T00:02:10.591Z,4.92
2018-06-18T00:02:43.605Z,5.00
2018-06-18T00:03:16.601Z,4.42
2018-06-18T00:03:49.680Z,4.87
2018-06-18T00:04:22.699Z,5.05
2018-06-18T00:04:55.690Z,5.12
2018-06-18T00:05:28.706Z,4.50
2018-06-18T00:06:01.749Z,4.45
2018-06-18T00:06:34.771Z,4.75
2018-06-18T00:07:07.805Z,5.25
2018-06-18T00:07:40.810Z,4.45
2018-06-18T00:08:13.820Z,4.45
2018-06-18T00:08:46.789Z,5.80
2018-06-18T00:09:19.784Z,5.75
2018-06-18T00:09:52.790Z,4.72
2018-06-18T00:10:25.814Z,4.72
2018-06-18T00:10:58.830Z,4.83
2018-06-18T00:11:31.828Z,4.97
2018-06-18T00:12:04.800Z,5.37
2018-06-18T00:12:37.781Z,4.95
2018-06-18T00:13:10.843Z,6.12
2018-06-18T00:13:43.811Z,4.72
2018-06-18T00:14:16.760Z,4.75
2018-06-18T00:14:49.757Z,5.25
2018-06-18T00:15:22.762Z,5.28
2018-06-18T00:15:55.784Z,4.43
2018-06-18T00:16:28.795Z,4.45
2018-06-18T00:17:01.810Z,5.35
2018-06-18T00:17:34.787Z,4.67
2018-06-18T00:18:07.748Z,5.05
2018-06-18T00:18:40.806Z,4.37
2018-06-18T00:19:13.793Z,4.70
2018-06-18T00:19:46.820Z,4.92
2018-06-18T00:20:19.832Z,4.87
2018-06-18T00:20:53.164Z,4.95
2018-06-18T00:21:26.152Z,5.03
2018-06-18T00:21:59.154Z,4.92
2018-06-18T00:22:32.209Z,5.35
2018-06-18T00:23:05.219Z,4.42
2018-06-18T00:23:38.193Z,4.47
2018-06-18T00:24:11.168Z,4.83
2018-06-18T00:24:45.187Z,4.90
2018-06-18T00:25:18.170Z,4.40
2018-06-18T00:25:52.052Z,5.12
2018-06-18T00:26:25.015Z,5.33
2018-06-18T00:26:58.016Z,5.17
2018-06-18T00:27:31.092Z,5.15
2018-06-18T00:28:04.163Z,4.83
2018-06-18T00:28:37.131Z,4.75
2018-06-18T00:29:10.121Z,4.65
2018-06-18T00:29:43.091Z,4.78
2018-06-18T00:30:16.059Z,4.65
2018-06-18T00:30:49.040Z,5.03
2018-06-18T00:31:22.069Z,4.78
2018-06-18T00:31:55.169Z,4.90
2018-06-18T00:32:28.173Z,4.62
2018-06-18T00:33:01.153Z,5.40
2018-06-18T00:33:34.166Z,4.35
2018-06-18T00:34:07.128Z,5.40
2018-06-18T00:34:40.561Z,5.10
2018-06-18T00:35:13.541Z,4.70
2018-06-18T00:35:46.533Z,5.25
2018-06-18T00:36:19.568Z,4.20
2018-06-18T00:36:52.559Z,4.58
2018-06-18T00:37:25.534Z,4.58
2018-06-18T00:37:58.523Z,4.42
2018-06-18T00:38:31.522Z,4.50
2018-06-18T00:39:07.622Z,5.17
2018-06-18T00:39:40.587Z,4.53
2018-06-18T00:40:13.530Z,4.42
2018-06-18T00:40:46.514Z,5.15
2018-06-18T00:41:19.617Z,4.62
2018-06-18T00:41:52.631Z,4.87
2018-06-18T00:42:25.631Z,4.80
2018-06-18T00:42:58.609Z,5.60
2018-06-18T00:43:31.619Z,4.65
2018-06-18T00:44:04.629Z,5.17
2018-06-18T00:44:37.626Z,4.53
2018-06-18T00:45:10.609Z,5.53
2018-06-18T00:45:43.608Z,5.85
2018-06-18T00:46:16.618Z,4.83
2018-06-18T00:46:49.605Z,5.15
2018-06-18T00:47:22.587Z,4.90
2018-06-18T00:47:55.579Z,4.62
2018-06-18T00:48:28.555Z,4.70
2018-06-18T00:49:01.521Z,5.75
2018-06-18T00:49:34.526Z,4.65
2018-06-18T00:50:07.511Z,4.80
2018-06-18T00:50:40.484Z,4.12
2018-06-18T00:51:13.520Z,5.30
2018-06-18T00:51:46.541Z,5.45
2018-06-18T00:52:19.579Z,5.20
2018-06-18T00:52:52.602Z,5.20
2018-06-18T00:53:25.652Z,4.92
2018-06-18T00:53:58.635Z,5.97
2018-06-18T00:54:31.629Z,4.37
2018-06-18T00:55:04.629Z,4.90
2018-06-18T00:55:54.925Z,5.25
2018-06-18T00:56:27.871Z,5.50
2018-06-18T00:57:00.879Z,5.35
2018-06-18T00:57:33.864Z,4.78
2018-06-18T00:58:06.840Z,4.90
2018-06-18T00:58:40.232Z,5.28
2018-06-18T00:59:13.230Z,5.35
2018-06-18T00:59:46.211Z,4.60
2018-06-18T01:00:19.213Z,5.22
2018-06-18T01:00:52.179Z,5.15
2018-06-18T01:01:25.179Z,5.03
2018-06-18T01:01:58.159Z,4.97
2018-06-18T01:02:31.187Z,5.05
2018-06-18T01:03:04.155Z,4.72
2018-06-18T01:03:37.160Z,4.80
2018-06-18T01:04:10.128Z,5.25
2018-06-18T01:04:43.126Z,5.15
2018-06-18T01:05:16.112Z,5.58
2018-06-18T01:05:49.069Z,4.62
2018-06-18T01:06:22.090Z,4.92
2018-06-18T01:06:55.093Z,4.95
2018-06-18T01:07:28.098Z,4.17
2018-06-18T01:08:01.103Z,4.90
2018-06-18T01:08:34.148Z,4.35
2018-06-18T01:09:11.209Z,4.47
2018-06-18T01:09:44.177Z,5.12
2018-06-18T01:10:17.149Z,5.10
2018-06-18T01:10:50.184Z,4.78
2018-06-18T01:11:23.199Z,4.67
2018-06-18T01:11:56.155Z,5.17
2018-06-18T01:12:29.146Z,4.65
2018-06-18T01:13:02.160Z,5.33
2018-06-18T01:13:35.141Z,4.70
2018-06-18T01:14:08.127Z,5.12
2018-06-18T01:14:41.121Z,5.60
2018-06-18T01:15:14.116Z,4.90
2018-06-18T01:15:47.103Z,4.55
2018-06-18T01:16:20.128Z,4.50
2018-06-18T01:16:53.116Z,5.03
2018-06-18T01:17:26.115Z,4.58
2018-06-18T01:17:59.121Z,5.25
2018-06-18T01:18:32.108Z,5.80
2018-06-18T01:19:05.141Z,4.72
2018-06-18T01:19:38.152Z,5.17
2018-06-18T01:20:11.162Z,4.50
2018-06-18T01:20:44.152Z,5.00
2018-06-18T01:21:17.151Z,4.50
2018-06-18T01:21:50.114Z,4.60
2018-06-18T01:22:23.096Z,5.57
2018-06-18T01:23:09.058Z,4.92
2018-06-18T01:23:52.159Z,4.28
2018-06-18T01:24:39.071Z,4.92
2018-06-18T01:25:12.035Z,4.72
2018-06-18T01:25:45.019Z,4.50
2018-06-18T01:26:18.022Z,4.78
2018-06-18T01:26:50.984Z,4.40
2018-06-18T01:27:23.936Z,4.70
2018-06-18T01:27:56.918Z,4.58
2018-06-18T01:28:29.923Z,4.85
2018-06-18T01:29:02.942Z,5.12
2018-06-18T01:29:35.938Z,5.00
2018-06-18T01:30:08.969Z,4.70
2018-06-18T01:30:41.990Z,4.90
2018-06-18T01:31:14.962Z,4.70
2018-06-18T01:31:47.915Z,4.50
2018-06-18T01:32:20.906Z,4.55
2018-06-18T01:32:53.874Z,4.97
2018-06-18T01:33:26.832Z,4.87
2018-06-18T01:34:01.898Z,4.78
2018-06-18T01:34:34.920Z,4.85
2018-06-18T01:35:08.674Z,4.25
2018-06-18T01:35:41.657Z,4.33
2018-06-18T01:36:14.666Z,4.55
2018-06-18T01:36:47.681Z,4.47
2018-06-18T01:37:20.678Z,4.60
2018-06-18T01:37:53.698Z,4.62
2018-06-18T01:38:26.860Z,4.90
2018-06-18T01:38:59.877Z,5.45
2018-06-18T01:39:32.906Z,4.87
2018-06-18T01:40:05.930Z,5.05
2018-06-18T01:40:38.951Z,4.62
2018-06-18T01:41:11.942Z,4.20
2018-06-18T01:41:44.991Z,4.40
2018-06-18T01:42:17.957Z,4.28
2018-06-18T01:42:51.016Z,4.22
2018-06-18T01:43:24.008Z,4.70
2018-06-18T01:43:56.986Z,4.55
2018-06-18T01:44:29.978Z,4.55
2018-06-18T01:45:07.978Z,5.10
2018-06-18T01:45:41.022Z,4.55
2018-06-18T01:46:14.012Z,4.62
2018-06-18T01:46:47.026Z,4.35
2018-06-18T01:47:20.008Z,4.58
2018-06-18T01:47:52.996Z,4.85
2018-06-18T01:48:25.987Z,4.25
2018-06-18T01:48:58.996Z,4.35
2018-06-18T01:49:31.979Z,4.58
2018-06-18T01:50:04.995Z,4.87
2018-06-18T01:50:37.990Z,4.17
2018-06-18T01:51:11.104Z,4.22
2018-06-18T01:51:44.490Z,5.12
2018-06-18T01:52:17.499Z,4.20
2018-06-18T01:52:50.526Z,4.28
2018-06-18T01:53:23.530Z,4.67
2018-06-18T01:53:56.514Z,4.65
2018-06-18T01:54:29.492Z,4.37
2018-06-18T01:55:02.474Z,4.62
2018-06-18T01:55:35.466Z,4.47
2018-06-18T01:56:08.470Z,4.70
2018-06-18T01:56:41.439Z,4.25
2018-06-18T01:57:14.426Z,4.22
2018-06-18T01:57:47.410Z,4.78
2018-06-18T01:58:20.372Z,4.10
2018-06-18T01:58:53.346Z,4.50
2018-06-18T01:59:26.349Z,4.37
2018-06-18T01:59:59.320Z,4.20
2018-06-18T02:00:32.306Z,4.78
2018-06-18T02:01:05.394Z,5.25
2018-06-18T02:01:38.405Z,4.75
2018-06-18T02:02:11.358Z,4.50
2018-06-18T02:02:44.323Z,4.47
2018-06-18T02:03:17.438Z,4.30
2018-06-18T02:03:50.504Z,4.87
2018-06-18T02:04:23.900Z,4.65
2018-06-18T02:04:56.923Z,4.92
2018-06-18T02:05:29.927Z,4.55
2018-06-18T02:06:02.935Z,4.40
2018-06-18T02:06:35.939Z,4.62
2018-06-18T02:07:08.962Z,5.10
2018-06-18T02:07:41.978Z,5.42
2018-06-18T02:08:14.972Z,5.50
2018-06-18T02:08:47.978Z,5.50
2018-06-18T02:09:20.970Z,5.40
2018-06-18T02:09:54.425Z,5.55
2018-06-18T02:10:27.451Z,5.20
2018-06-18T02:11:00.397Z,4.83
2018-06-18T02:11:33.354Z,5.05
2018-06-18T02:12:06.317Z,5.55
2018-06-18T02:12:39.315Z,5.03
2018-06-18T02:13:12.321Z,5.90
2018-06-18T02:13:45.296Z,5.28
2018-06-18T02:14:18.294Z,5.42
2018-06-18T02:14:51.290Z,5.22
2018-06-18T02:15:24.577Z,6.75
2018-06-18T02:15:57.617Z,5.53
2018-06-18T02:16:30.621Z,6.10
2018-06-18T02:17:03.759Z,5.62
2018-06-18T02:17:36.755Z,5.45
2018-06-18T02:18:09.779Z,5.10
2018-06-18T02:18:42.791Z,5.65
2018-06-18T02:19:15.820Z,5.67
2018-06-18T02:19:48.812Z,5.15
2018-06-18T02:20:21.828Z,6.00
2018-06-18T02:20:54.811Z,6.50
2018-06-18T02:21:27.851Z,5.75
2018-06-18T02:22:00.841Z,6.05
2018-06-18T02:22:33.820Z,6.35
2018-06-18T02:23:06.792Z,5.72
2018-06-18T02:23:39.793Z,5.78
2018-06-18T02:24:12.799Z,5.80
2018-06-18T02:24:45.810Z,5.72
2018-06-18T02:25:18.778Z,6.60
2018-06-18T02:25:51.778Z,6.25
2018-06-18T02:26:24.806Z,5.97
2018-06-18T02:27:03.475Z,6.30
2018-06-18T02:27:42.277Z,6.17
2018-06-18T02:28:20.851Z,6.22
2018-06-18T02:28:59.546Z,6.10
2018-06-18T02:29:38.375Z,5.83
2018-06-18T02:31:19.155Z,6.92
2018-06-18T02:31:57.993Z,5.70
2018-06-18T02:32:36.636Z,5.87
2018-06-18T02:33:15.523Z,5.70
2018-06-18T02:33:54.319Z,5.12
2018-06-18T02:34:33.107Z,5.90
2018-06-18T02:35:11.714Z,6.17
2018-06-18T02:35:50.389Z,5.72
2018-06-18T02:36:29.271Z,6.42
2018-06-18T02:37:07.781Z,5.90
2018-06-18T02:37:46.572Z,6.15
2018-06-18T02:38:25.375Z,6.03
2018-06-18T02:39:04.079Z,7.12
2018-06-18T02:39:42.745Z,6.50
2018-06-18T02:40:21.589Z,5.90
2018-06-18T02:40:54.591Z,6.95
2018-06-18T02:41:27.643Z,6.37
2018-06-18T02:42:00.655Z,7.00
2018-06-18T02:42:33.651Z,6.80
2018-06-18T02:43:06.672Z,7.67
2018-06-18T02:43:39.679Z,6.92
2018-06-18T02:44:13.400Z,7.12
2018-06-18T02:44:46.386Z,6.37
2018-06-18T02:45:19.391Z,6.37
2018-06-18T02:45:52.405Z,6.40
2018-06-18T02:46:25.405Z,6.12
2018-06-18T02:46:58.406Z,6.53
2018-06-18T02:47:31.401Z,7.70
2018-06-18T02:48:04.537Z,6.37
2018-06-18T02:48:37.517Z,6.65
2018-06-18T02:49:10.528Z,6.12
2018-06-18T02:49:43.508Z,6.62
2018-06-18T02:50:16.499Z,6.50
2018-06-18T02:50:49.574Z,6.40
2018-06-18T02:51:22.571Z,5.87
2018-06-18T02:51:55.547Z,6.00
2018-06-18T02:52:28.616Z,6.28
2018-06-18T02:53:01.666Z,6.30
2018-06-18T02:53:34.681Z,6.03
2018-06-18T02:54:08.343Z,6.70
2018-06-18T02:54:41.319Z,6.20
2018-06-18T02:55:14.378Z,6.87
2018-06-18T02:55:49.650Z,8.05
2018-06-18T02:57:06.653Z,6.20
2018-06-18T02:57:39.667Z,7.75
2018-06-18T02:58:12.649Z,7.10
2018-06-18T02:58:45.635Z,6.65
2018-06-18T02:59:18.855Z,7.20
2018-06-18T02:59:51.843Z,6.28
2018-06-18T03:00:24.971Z,6.87
2018-06-18T03:00:57.981Z,7.05
2018-06-18T03:01:30.964Z,7.22
2018-06-18T03:02:04.039Z,7.20
2018-06-18T03:02:37.061Z,6.67
2018-06-18T03:03:10.077Z,6.67
2018-06-18T03:03:43.095Z,6.75
2018-06-18T03:04:16.085Z,7.90
2018-06-18T03:04:49.042Z,7.42
2018-06-18T03:05:22.055Z,8.10
2018-06-18T03:05:55.059Z,8.25
2018-06-18T03:06:28.054Z,7.85
2018-06-18T03:07:01.025Z,7.78
2018-06-18T03:07:34.017Z,9.08
2018-06-18T03:08:07.020Z,8.63
2018-06-18T03:08:40.086Z,8.73
2018-06-18T03:09:13.111Z,8.40
2018-06-18T03:09:46.181Z,7.37
2018-06-18T03:10:19.354Z,8.60
2018-06-18T03:10:52.366Z,8.13
2018-06-18T03:11:25.369Z,8.08
2018-06-18T03:12:01.303Z,8.13
2018-06-18T03:12:34.303Z,8.53
2018-06-18T03:13:07.295Z,8.38
2018-06-18T03:13:40.304Z,8.85
2018-06-18T03:14:13.300Z,8.20
2018-06-18T03:14:46.295Z,8.18
2018-06-18T03:15:19.337Z,8.20
2018-06-18T03:15:52.405Z,8.70
2018-06-18T03:16:25.397Z,8.50
2018-06-18T03:16:58.424Z,8.40
2018-06-18T03:17:31.435Z,8.68
2018-06-18T03:18:04.427Z,8.98
2018-06-18T03:18:43.253Z,9.40
2018-06-18T03:19:21.795Z,9.23
2018-06-18T03:20:00.594Z,9.40
2018-06-18T03:22:08.975Z,9.18
2018-06-18T03:22:47.692Z,9.35
2018-06-18T03:24:25.582Z,9.38
2018-06-18T03:25:04.407Z,9.65
2018-06-18T03:25:43.230Z,10.15
2018-06-18T03:26:21.905Z,9.05
2018-06-18T03:27:00.662Z,10.08
2018-06-18T03:27:39.392Z,10.18
2018-06-18T03:28:18.224Z,10.70
2018-06-18T03:28:57.056Z,9.65
2018-06-18T03:29:32.853Z,10.13
2018-06-18T03:30:06.137Z,11.38
2018-06-18T03:30:39.105Z,10.55
2018-06-18T03:31:12.089Z,10.55
2018-06-18T03:31:45.701Z,10.48
2018-06-18T03:32:18.735Z,11.45
2018-06-18T03:32:51.746Z,10.30
2018-06-18T03:33:24.738Z,10.85
2018-06-18T03:33:57.723Z,11.00
2018-06-18T03:34:30.690Z,8.85
2018-06-18T03:35:03.771Z,10.75
2018-06-18T03:35:36.744Z,10.55
2018-06-18T03:36:09.731Z,9.78
2018-06-18T03:36:44.124Z,10.23
2018-06-18T03:37:19.254Z,10.43
2018-06-18T03:37:53.186Z,9.93
2018-06-18T03:38:26.155Z,10.70
2018-06-18T03:38:59.155Z,10.25
2018-06-18T03:39:32.167Z,10.85
2018-06-18T03:40:05.454Z,10.70
2018-06-18T03:40:38.431Z,10.35
2018-06-18T03:41:11.429Z,10.08
2018-06-18T03:42:50.062Z,10.63
2018-06-18T03:43:23.086Z,11.08
2018-06-18T03:44:03.528Z,10.65
2018-06-18T03:44:48.588Z,10.82
2018-06-18T03:45:25.372Z,10.25
2018-06-18T03:45:58.350Z,10.70
2018-06-18T03:46:31.357Z,10.65
2018-06-18T03:47:13.836Z,9.48
2018-06-18T03:47:46.888Z,9.95
2018-06-18T03:48:19.838Z,10.58
2018-06-18T03:48:52.872Z,9.70
2018-06-18T03:49:25.894Z,10.03
2018-06-18T03:49:58.914Z,9.58
2018-06-18T03:50:31.904Z,9.38
2018-06-18T03:51:04.940Z,9.00
2018-06-18T03:51:37.914Z,9.80
2018-06-18T03:52:10.932Z,9.28
2018-06-18T03:52:43.934Z,9.13
2018-06-18T03:53:16.946Z,9.90
2018-06-18T03:53:49.940Z,8.95
2018-06-18T03:54:22.946Z,8.98
2018-06-18T03:54:59.360Z,10.08
2018-06-18T03:55:45.270Z,9.18
2018-06-18T03:56:18.334Z,9.55
2018-06-18T03:56:51.312Z,8.95
2018-06-18T03:57:24.292Z,9.30
2018-06-18T03:57:57.332Z,8.70
2018-06-18T03:58:30.306Z,8.60
2018-06-18T03:59:03.282Z,8.58
2018-06-18T03:59:36.288Z,8.85
2018-06-18T04:00:09.942Z,9.03
2018-06-18T04:01:13.958Z,9.05
2018-06-18T04:01:59.752Z,9.20
2018-06-18T04:02:42.783Z,8.08
2018-06-18T04:03:21.782Z,9.60
2018-06-18T04:04:04.926Z,8.18
2018-06-18T04:04:50.278Z,8.10
2018-06-18T04:05:29.051Z,8.98
2018-06-18T04:07:07.934Z,9.18
2018-06-18T04:07:46.766Z,8.45
2018-06-18T04:08:19.784Z,9.08
2018-06-18T04:08:58.542Z,8.38
2018-06-18T04:09:37.376Z,8.93
2018-06-18T04:10:15.986Z,9.00
2018-06-18T04:10:54.694Z,8.83
2018-06-18T04:11:33.490Z,8.83
2018-06-18T04:12:08.396Z,8.95
2018-06-18T04:12:41.404Z,8.45
2018-06-18T04:13:14.367Z,8.80
2018-06-18T04:13:47.315Z,8.03
2018-06-18T04:14:20.302Z,8.43
2018-06-18T04:14:53.278Z,8.18
2018-06-18T04:15:26.265Z,8.75
2018-06-18T04:15:59.242Z,8.28
2018-06-18T04:16:32.282Z,9.48
2018-06-18T04:17:05.312Z,9.00
2018-06-18T04:17:38.320Z,8.38
2018-06-18T04:18:11.294Z,9.73
2018-06-18T04:18:48.660Z,8.58
2018-06-18T04:19:21.669Z,8.43
2018-06-18T04:19:54.657Z,9.20
2018-06-18T04:20:41.314Z,9.45
2018-06-18T04:21:14.330Z,8.25
2018-06-18T04:21:47.326Z,8.98
2018-06-18T04:22:20.342Z,9.45
2018-06-18T04:22:53.320Z,9.63
2018-06-18T04:23:26.315Z,10.28
2018-06-18T04:23:59.311Z,9.10
2018-06-18T04:24:32.322Z,9.00
2018-06-18T04:25:05.458Z,8.98
2018-06-18T04:25:38.454Z,9.53
2018-06-18T04:26:11.507Z,8.70
2018-06-18T04:26:44.566Z,9.25
2018-06-18T04:27:17.626Z,9.60
2018-06-18T04:27:50.606Z,9.63
2018-06-18T04:28:23.643Z,9.20
2018-06-18T04:28:56.626Z,9.00
2018-06-18T04:29:29.604Z,9.23
2018-06-18T04:30:02.664Z,9.55
2018-06-18T04:30:35.669Z,8.93
2018-06-18T04:31:08.667Z,9.18
2018-06-18T04:31:41.616Z,9.78
2018-06-18T04:32:14.626Z,9.33
2018-06-18T04:32:47.610Z,8.95
2018-06-18T04:33:24.832Z,9.80
2018-06-18T04:34:23.792Z,9.85
2018-06-18T04:35:00.458Z,9.10
2018-06-18T04:35:33.483Z,9.83
2018-06-18T04:36:06.458Z,10.13
2018-06-18T04:36:39.454Z,10.48
2018-06-18T04:37:12.427Z,8.78
2018-06-18T04:37:45.448Z,9.58
2018-06-18T04:38:18.382Z,10.55
2018-06-18T04:38:51.343Z,10.48
2018-06-18T04:39:24.552Z,9.65
2018-06-18T04:39:57.526Z,9.23
2018-06-18T04:40:30.506Z,8.53
2018-06-18T04:41:03.482Z,9.20
2018-06-18T04:41:41.038Z,9.35
2018-06-18T04:42:19.847Z,10.23
2018-06-18T04:42:58.468Z,9.18
2018-06-18T04:43:37.064Z,9.20
2018-06-18T04:44:15.840Z,9.58
2018-06-18T04:44:54.503Z,8.95
2018-06-18T04:45:46.214Z,10.43
2018-06-18T04:46:25.100Z,8.65
2018-06-18T04:48:01.783Z,8.68
2018-06-18T04:48:40.615Z,8.10
2018-06-18T04:49:19.228Z,8.35
2018-06-18T04:49:58.038Z,8.20
2018-06-18T04:50:36.866Z,8.43
2018-06-18T04:51:09.862Z,7.40
2018-06-18T04:51:42.846Z,7.67
2018-06-18T04:52:15.846Z,7.35
2018-06-18T04:52:48.861Z,7.20
2018-06-18T04:53:21.854Z,7.33
2018-06-18T04:53:54.840Z,7.33
2018-06-18T04:54:27.956Z,6.87
2018-06-18T04:55:01.032Z,7.33
2018-06-18T04:55:34.112Z,7.13
2018-06-18T04:56:07.124Z,7.03
2018-06-18T04:56:40.106Z,6.20
2018-06-18T04:57:13.144Z,6.85
2018-06-18T04:57:46.137Z,6.58
2018-06-18T04:58:19.124Z,6.55
2018-06-18T04:58:52.172Z,6.45
2018-06-18T04:59:25.398Z,6.05
2018-06-18T05:00:28.102Z,7.05
2018-06-18T05:01:31.244Z,6.83
2018-06-18T05:02:05.279Z,6.78
2018-06-18T05:02:38.302Z,6.22
2018-06-18T05:03:11.301Z,7.20
2018-06-18T05:03:44.299Z,6.22
2018-06-18T05:04:17.302Z,6.05
2018-06-18T05:04:50.264Z,6.22
2018-06-18T05:05:23.239Z,5.95
2018-06-18T05:05:56.364Z,6.10
2018-06-18T05:06:30.474Z,6.40
2018-06-18T05:07:03.470Z,5.70
2018-06-18T05:07:36.512Z,6.65
2018-06-18T05:10:24.978Z,6.00
2018-06-18T05:10:57.986Z,6.25
2018-06-18T05:11:31.005Z,6.70
2018-06-18T05:12:04.053Z,6.15
2018-06-18T05:12:37.050Z,6.08
2018-06-18T05:13:14.236Z,5.25
2018-06-18T05:13:47.254Z,6.33
2018-06-18T05:14:20.250Z,5.90
2018-06-18T05:14:53.210Z,5.55
2018-06-18T05:15:34.841Z,5.62
2018-06-18T05:16:07.808Z,5.65
2018-06-18T05:16:40.762Z,5.90
2018-06-18T05:17:13.748Z,6.20
2018-06-18T05:17:46.706Z,5.67
2018-06-18T05:18:19.720Z,6.28
2018-06-18T05:18:52.698Z,5.85
2018-06-18T05:19:25.683Z,5.80
2018-06-18T05:19:58.689Z,6.03
2018-06-18T05:20:31.704Z,5.80
2018-06-18T05:21:04.735Z,5.67
2018-06-18T05:21:37.690Z,5.35
2018-06-18T05:22:10.722Z,5.97
2018-06-18T05:22:43.714Z,6.15
2018-06-18T05:23:17.190Z,6.22
2018-06-18T05:23:50.155Z,5.53
2018-06-18T05:24:23.125Z,5.75
2018-06-18T05:24:56.082Z,5.65
2018-06-18T05:25:30.408Z,4.83
2018-06-18T05:26:03.383Z,5.50
2018-06-18T05:26:41.779Z,5.60
2018-06-18T05:27:15.320Z,5.40
2018-06-18T05:27:48.331Z,5.15
2018-06-18T05:28:21.286Z,5.33
2018-06-18T05:28:54.234Z,5.55
2018-06-18T05:29:27.315Z,6.40
2018-06-18T05:30:06.721Z,5.70
2018-06-18T05:30:39.747Z,4.72
2018-06-18T05:31:12.774Z,5.37
2018-06-18T05:31:45.771Z,5.97
2018-06-18T05:32:18.750Z,5.22
2018-06-18T05:32:51.761Z,5.45
2018-06-18T05:33:24.711Z,5.20
2018-06-18T05:33:57.707Z,5.50
2018-06-18T05:34:31.543Z,5.85
2018-06-18T05:35:05.846Z,5.10
2018-06-18T05:35:39.258Z,5.85
2018-06-18T05:36:12.283Z,4.90
2018-06-18T05:36:45.339Z,6.12
2018-06-18T05:37:29.490Z,5.83
2018-06-18T05:38:12.187Z,5.30
2018-06-18T05:38:45.205Z,5.53
2018-06-18T05:39:18.187Z,6.08
2018-06-18T05:39:51.194Z,6.45
2018-06-18T05:40:24.165Z,5.95
2018-06-18T05:40:57.692Z,6.55
2018-06-18T05:41:30.703Z,5.67
2018-06-18T05:42:03.691Z,5.78
2018-06-18T05:42:36.692Z,6.08
2018-06-18T05:43:10.259Z,5.97
2018-06-18T05:43:43.264Z,5.75
2018-06-18T05:44:16.252Z,6.12
2018-06-18T05:44:49.233Z,5.45
2018-06-18T05:45:22.332Z,6.30
2018-06-18T05:45:55.335Z,6.30
2018-06-18T05:46:28.295Z,6.15
2018-06-18T05:47:01.292Z,5.90
2018-06-18T05:47:34.261Z,4.90
2018-06-18T05:48:07.274Z,6.78
2018-06-18T05:48:40.265Z,6.30
2018-06-18T05:54:04.991Z,5.62
2018-06-18T05:54:38.028Z,6.30
2018-06-18T05:55:11.027Z,6.00
2018-06-18T05:55:44.041Z,6.70
2018-06-18T05:56:17.037Z,6.62
2018-06-18T05:56:50.130Z,6.33
2018-06-18T05:57:23.143Z,6.55
2018-06-18T05:57:56.173Z,6.72
2018-06-18T05:58:29.202Z,6.33
2018-06-18T05:59:02.197Z,6.35
2018-06-18T05:59:35.210Z,6.33
2018-06-18T06:00:08.313Z,5.78
2018-06-18T06:00:41.838Z,6.28
2018-06-18T06:01:14.832Z,5.62
2018-06-18T06:01:47.829Z,5.83
2018-06-18T06:02:20.837Z,5.95
2018-06-18T06:02:53.818Z,6.05
2018-06-18T06:03:26.811Z,6.08
2018-06-18T06:03:59.793Z,5.35
2018-06-18T06:04:32.785Z,5.35
2018-06-18T06:05:05.851Z,5.22
2018-06-18T06:05:38.889Z,5.28
2018-06-18T06:06:11.890Z,6.47
2018-06-18T06:06:44.906Z,5.58
2018-06-18T06:07:17.901Z,5.92
2018-06-18T06:07:50.953Z,5.75
2018-06-18T06:08:24.073Z,6.30
2018-06-18T06:08:57.051Z,5.60
2018-06-18T06:09:30.042Z,6.03
2018-06-18T06:10:03.575Z,6.22
2018-06-18T06:10:36.887Z,6.22
2018-06-18T06:11:09.896Z,5.85
2018-06-18T06:11:43.100Z,5.27
2018-06-18T06:12:16.076Z,5.17
2018-06-18T06:12:49.125Z,5.28
2018-06-18T06:13:22.210Z,5.50
2018-06-18T06:13:55.216Z,5.25
2018-06-18T06:14:28.230Z,5.87
2018-06-18T06:15:01.240Z,5.85
2018-06-18T06:15:34.254Z,5.97
2018-06-18T06:16:07.235Z,5.37
2018-06-18T06:16:40.218Z,5.80
2018-06-18T06:17:13.193Z,5.28
2018-06-18T06:17:46.168Z,5.47
2018-06-18T06:18:19.166Z,5.03
2018-06-18T06:18:52.238Z,4.60
2018-06-18T06:19:25.325Z,5.30
2018-06-18T06:19:58.288Z,5.33
2018-06-18T06:20:31.282Z,5.10
2018-06-18T06:21:08.405Z,5.10
2018-06-18T06:21:41.377Z,4.80
2018-06-18T06:22:14.380Z,5.03
2018-06-18T06:22:47.390Z,5.58
2018-06-18T06:23:20.406Z,5.47
2018-06-18T06:23:53.434Z,5.28
2018-06-18T06:24:26.468Z,5.00
2018-06-18T06:24:59.457Z,5.20
2018-06-18T06:25:32.430Z,5.20
2018-06-18T06:26:05.468Z,5.00
2018-06-18T06:26:38.510Z,5.25
2018-06-18T06:27:11.516Z,5.33
2018-06-18T06:27:44.528Z,5.25
2018-06-18T06:28:17.523Z,5.65
2018-06-18T06:28:50.501Z,5.53
2018-06-18T06:29:23.472Z,4.92
2018-06-18T06:29:56.455Z,5.53
2018-06-18T06:30:29.427Z,6.25
2018-06-18T06:31:02.461Z,5.33
2018-06-18T06:31:35.459Z,5.10
2018-06-18T06:32:08.656Z,5.40
2018-06-18T06:32:41.654Z,5.33
2018-06-18T06:33:14.646Z,5.40
2018-06-18T06:33:47.612Z,5.15
2018-06-18T06:34:20.584Z,5.65
2018-06-18T06:35:20.468Z,4.80
2018-06-18T06:35:55.374Z,5.72
2018-06-18T06:36:28.638Z,5.60
2018-06-18T06:37:01.632Z,6.05
2018-06-18T06:37:34.712Z,6.03
2018-06-18T06:38:07.634Z,5.65
2018-06-18T06:38:40.590Z,5.80
2018-06-18T06:39:13.610Z,5.37
2018-06-18T06:39:46.599Z,6.10
2018-06-18T06:40:19.606Z,5.65
2018-06-18T06:40:52.598Z,6.20
2018-06-18T06:41:27.870Z,5.90
2018-06-18T06:42:09.552Z,5.28
2018-06-18T06:42:42.586Z,5.60
2018-06-18T06:43:15.584Z,5.05
2018-06-18T06:43:48.610Z,5.60
2018-06-18T06:44:21.620Z,4.95
2018-06-18T06:46:24.164Z,5.00
2018-06-18T06:46:57.166Z,4.58
2018-06-18T06:47:30.149Z,4.75
2018-06-18T06:48:03.262Z,4.42
2018-06-18T06:48:36.431Z,4.40
2018-06-18T06:49:09.426Z,4.60
2018-06-18T06:49:42.520Z,4.30
2018-06-18T06:50:15.560Z,4.45
2018-06-18T06:50:48.564Z,4.92
2018-06-18T06:51:21.572Z,5.10
2018-06-18T06:51:54.616Z,5.45
2018-06-18T06:52:27.614Z,4.83
2018-06-18T06:53:00.657Z,4.97
2018-06-18T06:53:33.680Z,5.33
2018-06-18T06:54:06.692Z,5.40
2018-06-18T06:54:39.756Z,5.33
2018-06-18T06:55:12.758Z,6.47
2018-06-18T06:55:45.766Z,5.70
2018-06-18T06:56:18.789Z,5.90
2018-06-18T06:56:51.782Z,6.03
2018-06-18T06:57:24.766Z,6.17
2018-06-18T06:57:57.794Z,5.80
2018-06-18T06:58:30.790Z,6.55
2018-06-18T06:59:03.931Z,5.90
2018-06-18T06:59:36.997Z,6.67
2018-06-18T07:00:10.110Z,6.20
2018-06-18T07:00:43.422Z,5.80
2018-06-18T07:01:16.520Z,5.45
2018-06-18T07:01:49.438Z,6.22
2018-06-18T07:02:22.434Z,5.80
2018-06-18T07:02:55.413Z,5.72
2018-06-18T07:03:28.398Z,5.83
2018-06-18T07:04:01.488Z,4.97
2018-06-18T07:04:34.526Z,5.10
2018-06-18T07:05:07.540Z,5.33
2018-06-18T07:05:40.526Z,4.70
2018-06-18T07:06:13.524Z,4.05
2018-06-18T07:06:46.526Z,4.28
2018-06-18T07:07:19.551Z,4.10
2018-06-18T07:07:52.537Z,4.03
2018-06-18T07:08:25.558Z,3.80
2018-06-18T07:08:58.530Z,4.17
2018-06-18T07:09:31.562Z,3.70
2018-06-18T07:10:04.788Z,3.60
2018-06-18T07:10:37.762Z,4.15
2018-06-18T07:11:10.776Z,4.30
2018-06-18T07:11:43.804Z,4.17
2018-06-18T07:12:16.876Z,3.87
2018-06-18T07:12:49.914Z,3.58
2018-06-18T07:13:22.977Z,3.75
2018-06-18T07:13:55.908Z,3.55
2018-06-18T07:14:28.900Z,3.92
2018-06-18T07:15:01.938Z,4.28
2018-06-18T07:15:35.035Z,3.92
2018-06-18T07:16:08.048Z,3.90
2018-06-18T07:16:41.118Z,4.17
2018-06-18T07:17:14.130Z,3.58
2018-06-18T07:17:47.124Z,3.77
2018-06-18T07:18:20.102Z,4.15
2018-06-18T07:18:53.150Z,3.70
2018-06-18T07:19:26.168Z,4.05
2018-06-18T07:19:59.216Z,3.40
2018-06-18T07:20:32.198Z,3.45
2018-06-18T07:21:05.226Z,3.92
2018-06-18T07:21:38.226Z,3.58
2018-06-18T07:22:11.198Z,3.70
2018-06-18T07:22:44.198Z,4.03
2018-06-18T07:23:17.210Z,3.42
2018-06-18T07:23:50.232Z,4.00
2018-06-18T07:24:23.210Z,3.70
2018-06-18T07:24:56.204Z,3.50
2018-06-18T07:25:29.225Z,3.60
2018-06-18T07:26:02.267Z,3.17
2018-06-18T07:26:35.238Z,3.47
2018-06-18T07:27:08.364Z,4.30
2018-06-18T07:27:41.386Z,4.10
2018-06-18T07:28:14.442Z,4.17
2018-06-18T07:28:47.480Z,3.52
2018-06-18T07:29:20.492Z,3.58
2018-06-18T07:29:53.506Z,3.70
2018-06-18T07:30:26.512Z,3.47
2018-06-18T07:30:59.470Z,3.27
2018-06-18T07:31:32.449Z,3.50
2018-06-18T07:32:05.449Z,3.00
2018-06-18T07:32:38.450Z,3.20
2018-06-18T07:33:11.476Z,3.25
2018-06-18T07:33:44.493Z,3.47
2018-06-18T07:34:17.562Z,3.47
2018-06-18T07:34:50.618Z,3.20
2018-06-18T07:35:23.618Z,3.67
2018-06-18T07:35:56.616Z,3.10
2018-06-18T07:36:29.722Z,3.25
2018-06-18T07:37:02.724Z,3.33
2018-06-18T07:37:35.746Z,3.12
2018-06-18T07:38:08.766Z,3.05
2018-06-18T07:38:41.769Z,3.47
2018-06-18T07:39:14.872Z,3.17
2018-06-18T07:39:47.911Z,3.10
2018-06-18T07:40:20.961Z,3.37
2018-06-18T07:40:54.045Z,3.33
2018-06-18T07:41:27.062Z,3.62
2018-06-18T07:42:00.080Z,3.52
2018-06-18T07:42:33.055Z,3.55
2018-06-18T07:43:06.038Z,3.85
2018-06-18T07:43:39.021Z,3.40
2018-06-18T07:44:12.096Z,3.72
2018-06-18T07:44:45.107Z,3.55
2018-06-18T07:45:18.156Z,3.67
2018-06-18T07:45:51.127Z,3.83
2018-06-18T07:46:24.090Z,4.03
2018-06-18T07:46:57.068Z,3.90
2018-06-18T07:47:30.079Z,3.95